createdAt,value
2022-08-09T00:00:11.461Z,57.08
2022-08-09T00:02:59.884Z,57.16
2022-08-09T00:06:17.780Z,58.30
2022-08-09T00:08:32.339Z,59.01
2022-08-09T00:11:05.548Z,62.36
2022-08-09T00:13:33.833Z,65.22
2022-08-09T00:16:06.372Z,64.55
2022-08-09T00:18:35.976Z,62.45
2022-08-09T00:21:05.387Z,62.30
2022-08-09T00:23:55.460Z,62.38
2022-08-09T00:26:32.720Z,62.94
2022-08-09T00:29:03.206Z,61.41
2022-08-09T00:31:58.723Z,60.28
2022-08-09T00:34:19.811Z,61.01
2022-08-09T00:36:48.892Z,61.00
2022-08-09T00:40:12.162Z,60.55
2022-08-09T00:44:16.199Z,61.10
2022-08-09T00:44:54.123Z,61.34
2022-08-09T00:47:24.821Z,61.05
2022-08-09T00:49:57.107Z,60.57
2022-08-09T00:52:30.128Z,60.86
2022-08-09T00:55:00.943Z,61.45
2022-08-09T00:57:34.710Z,61.86
2022-08-09T01:00:21.067Z,61.69
2022-08-09T01:03:13.694Z,61.63
2022-08-09T01:05:46.447Z,61.28
2022-08-09T01:08:27.046Z,60.90
2022-08-09T01:11:21.152Z,61.10
2022-08-09T01:14:04.098Z,61.33
2022-08-09T01:16:47.340Z,61.19
2022-08-09T01:20:02.645Z,60.51
2022-08-09T01:22:46.280Z,60.16
2022-08-09T01:25:42.020Z,60.18
2022-08-09T01:28:16.951Z,60.47
2022-08-09T01:30:52.693Z,61.18
2022-08-09T01:33:24.201Z,61.17
2022-08-09T01:36:15.133Z,61.02
2022-08-09T01:38:47.363Z,61.25
2022-08-09T01:41:19.380Z,61.84
2022-08-09T01:43:59.670Z,61.64
2022-08-09T01:46:31.628Z,61.93
2022-08-09T01:49:10.449Z,62.26
2022-08-09T01:51:44.421Z,62.19
2022-08-09T01:54:14.309Z,62.39
2022-08-09T01:56:47.125Z,61.95
2022-08-09T01:59:20.956Z,61.93
2022-08-09T02:01:59.031Z,61.81
2022-08-09T02:04:30.349Z,61.94
2022-08-09T02:07:17.895Z,62.61
2022-08-09T02:10:03.957Z,62.49
2022-08-09T02:12:34.969Z,62.71
2022-08-09T02:15:06.466Z,63.03
2022-08-09T02:18:00.652Z,63.06
2022-08-09T02:20:32.547Z,62.25
2022-08-09T02:23:04.699Z,62.77
2022-08-09T02:25:42.752Z,63.19
2022-08-09T02:28:45.136Z,63.28
2022-08-09T02:31:21.241Z,63.20
2022-08-09T02:34:06.771Z,63.47
2022-08-09T02:36:41.892Z,63.63
2022-08-09T02:39:20.322Z,63.86
2022-08-09T02:42:06.365Z,63.80
2022-08-09T02:44:41.142Z,64.10
2022-08-09T02:47:12.124Z,63.99
2022-08-09T02:49:44.043Z,63.70
2022-08-09T02:52:15.553Z,63.87
2022-08-09T02:54:53.908Z,63.85
2022-08-09T02:57:24.059Z,63.82
2022-08-09T03:00:20.707Z,63.69
2022-08-09T03:02:58.021Z,63.89
2022-08-09T03:05:26.918Z,64.02
2022-08-09T03:07:55.843Z,64.00
2022-08-09T03:10:26.456Z,63.96
2022-08-09T03:12:54.917Z,63.94
2022-08-09T03:15:24.453Z,63.90
2022-08-09T03:18:10.843Z,63.67
2022-08-09T03:20:39.487Z,64.14
2022-08-09T03:23:24.091Z,63.68
2022-08-09T03:25:58.260Z,64.53
2022-08-09T03:28:31.188Z,63.97
2022-08-09T03:30:59.623Z,63.68
2022-08-09T03:33:52.964Z,63.66
2022-08-09T03:36:27.432Z,63.61
2022-08-09T03:38:56.711Z,63.68
2022-08-09T03:41:29.691Z,64.38
2022-08-09T03:44:08.141Z,63.91
2022-08-09T03:46:37.024Z,63.60
2022-08-09T03:49:08.223Z,63.64
2022-08-09T03:51:56.911Z,63.66
2022-08-09T03:54:38.476Z,63.59
2022-08-09T03:57:20.084Z,63.58
2022-08-09T03:59:54.797Z,63.53
2022-08-09T04:02:28.827Z,63.38
2022-08-09T04:04:59.209Z,63.37
2022-08-09T04:07:33.638Z,63.56
2022-08-09T04:10:18.309Z,63.68
2022-08-09T04:12:50.960Z,63.52
2022-08-09T04:15:52.571Z,63.45
2022-08-09T04:18:09.704Z,62.90
2022-08-09T04:20:49.129Z,62.59
2022-08-09T04:23:23.315Z,62.55
2022-08-09T04:25:54.133Z,62.50
2022-08-09T04:28:34.027Z,62.62
2022-08-09T04:31:08.664Z,62.25
2022-08-09T04:33:47.340Z,62.61
2022-08-09T04:36:19.584Z,62.07
2022-08-09T04:38:47.636Z,61.56
2022-08-09T04:41:15.450Z,61.85
2022-08-09T04:43:49.728Z,61.05
2022-08-09T04:46:37.543Z,61.03
2022-08-09T04:49:30.264Z,60.50
2022-08-09T04:52:07.565Z,61.20
2022-08-09T04:54:37.483Z,61.71
2022-08-09T04:57:05.511Z,61.22
2022-08-09T04:59:37.886Z,60.94
2022-08-09T05:02:05.907Z,60.13
2022-08-09T05:04:34.510Z,60.00
2022-08-09T05:07:02.377Z,60.56
2022-08-09T05:09:41.890Z,58.53
2022-08-09T05:12:11.122Z,57.82
2022-08-09T05:14:40.966Z,58.99
2022-08-09T05:17:15.323Z,61.09
2022-08-09T05:19:58.113Z,62.01
2022-08-09T05:23:50.606Z,61.79
2022-08-09T05:25:15.215Z,61.19
2022-08-09T05:27:46.372Z,60.59
2022-08-09T05:30:17.744Z,60.40
2022-08-09T05:32:50.833Z,58.67
2022-08-09T05:35:22.045Z,58.02
2022-08-09T05:37:51.025Z,59.09
2022-08-09T05:40:18.813Z,59.67
2022-08-09T05:42:48.907Z,61.41
2022-08-09T05:45:17.988Z,62.89
2022-08-09T05:47:52.295Z,62.89
2022-08-09T05:50:51.404Z,61.87
2022-08-09T05:53:32.479Z,59.18
2022-08-09T05:56:01.511Z,57.76
2022-08-09T05:58:29.586Z,58.78
2022-08-09T06:00:58.237Z,60.18
2022-08-09T06:03:34.737Z,61.76
2022-08-09T06:06:12.575Z,62.13
2022-08-09T06:08:40.364Z,60.87
2022-08-09T06:11:16.621Z,59.07
2022-08-09T06:13:47.348Z,57.87
2022-08-09T06:16:15.349Z,58.11
2022-08-09T06:18:44.132Z,60.00
2022-08-09T06:21:12.459Z,59.36
2022-08-09T06:23:58.570Z,61.67
2022-08-09T06:26:29.897Z,60.98
2022-08-09T06:29:05.237Z,61.33
2022-08-09T06:31:40.567Z,62.66
2022-08-09T06:34:22.643Z,64.00
2022-08-09T06:36:59.313Z,63.61
2022-08-09T06:39:48.804Z,59.29
2022-08-09T06:42:24.871Z,57.15
2022-08-09T06:44:57.403Z,57.35
2022-08-09T06:47:25.522Z,57.50
2022-08-09T06:50:13.664Z,58.68
2022-08-09T06:52:48.689Z,58.73
2022-08-09T06:55:22.290Z,59.30
2022-08-09T06:58:02.083Z,59.51
2022-08-09T07:00:56.084Z,59.72
2022-08-09T07:03:28.495Z,59.36
2022-08-09T07:06:03.851Z,58.55
2022-08-09T07:08:35.322Z,59.47
2022-08-09T07:11:06.776Z,58.55
2022-08-09T07:14:05.733Z,58.57
2022-08-09T07:16:42.754Z,58.23
2022-08-09T07:19:15.388Z,58.39
2022-08-09T07:21:55.651Z,56.77
2022-08-09T07:24:32.556Z,56.43
2022-08-09T07:27:27.311Z,56.46
2022-08-09T07:29:59.892Z,58.21
2022-08-09T07:32:33.487Z,58.26
2022-08-09T07:35:08.211Z,58.52
2022-08-09T07:37:44.535Z,57.34
2022-08-09T07:40:18.924Z,56.62
2022-08-09T07:42:56.290Z,57.53
2022-08-09T07:45:37.675Z,55.07
2022-08-09T07:48:25.260Z,55.69
2022-08-09T07:51:09.308Z,56.28
2022-08-09T07:54:05.816Z,55.66
2022-08-09T07:56:49.810Z,56.43
2022-08-09T07:59:33.906Z,55.48
2022-08-09T08:02:09.086Z,55.73
2022-08-09T08:04:37.817Z,55.38
2022-08-09T08:07:21.575Z,54.71
2022-08-09T08:10:08.895Z,52.51
2022-08-09T08:12:45.556Z,54.04
2022-08-09T08:15:24.208Z,53.15
2022-08-09T08:17:57.901Z,52.31
2022-08-09T08:20:30.647Z,53.03
2022-08-09T08:23:06.595Z,51.57
2022-08-09T08:25:49.986Z,51.75
2022-08-09T08:28:31.974Z,51.96
2022-08-09T08:31:10.647Z,50.95
2022-08-09T08:33:52.806Z,50.00
2022-08-09T08:36:29.620Z,50.01
2022-08-09T08:38:59.861Z,49.30
2022-08-09T08:41:50.470Z,47.95
2022-08-09T08:44:27.124Z,47.59
2022-08-09T08:47:03.398Z,47.88
2022-08-09T08:49:48.256Z,47.24
2022-08-09T08:55:07.579Z,46.86
2022-08-09T08:57:37.135Z,45.22
2022-08-09T09:00:20.298Z,46.43
2022-08-09T09:03:08.123Z,44.55
2022-08-09T09:05:58.380Z,41.92
2022-08-09T09:08:38.073Z,42.90
2022-08-09T09:11:13.747Z,42.47
2022-08-09T09:13:56.809Z,41.58
2022-08-09T09:16:33.739Z,40.83
2022-08-09T09:19:37.093Z,41.35
2022-08-09T09:22:26.943Z,38.42
2022-08-09T09:26:01.714Z,37.54
2022-08-09T09:28:05.102Z,37.54
2022-08-09T09:30:41.280Z,37.53
2022-08-09T09:33:16.949Z,37.81
2022-08-09T09:36:01.586Z,39.74
2022-08-09T09:38:47.409Z,39.64
2022-08-09T09:41:27.942Z,40.43
2022-08-09T09:44:11.574Z,40.91
2022-08-09T09:46:45.883Z,40.65
2022-08-09T09:49:31.695Z,40.00
2022-08-09T09:52:16.387Z,41.26
2022-08-09T09:55:16.027Z,40.90
2022-08-09T09:58:16.353Z,41.29
2022-08-09T10:00:58.826Z,41.75
2022-08-09T10:03:42.836Z,41.81
2022-08-09T10:06:12.675Z,41.94
2022-08-09T10:08:44.247Z,41.75
2022-08-09T10:11:59.980Z,42.12
2022-08-09T10:14:27.264Z,42.50
2022-08-09T10:17:11.451Z,43.26
2022-08-09T10:19:43.519Z,43.77
2022-08-09T10:22:13.669Z,44.14
2022-08-09T10:24:41.397Z,44.16
2022-08-09T10:27:17.197Z,45.09
2022-08-09T10:30:16.521Z,45.47
2022-08-09T10:32:42.274Z,45.25
2022-08-09T10:35:10.750Z,45.24
2022-08-09T10:37:42.022Z,45.59
2022-08-09T10:40:12.128Z,46.01
2022-08-09T10:42:58.223Z,45.58
2022-08-09T10:45:31.878Z,45.79
2022-08-09T10:48:17.473Z,46.69
2022-08-09T10:51:17.799Z,47.08
2022-08-09T10:54:09.965Z,46.03
2022-08-09T10:56:42.174Z,45.88
2022-08-09T10:59:31.329Z,45.74
2022-08-09T11:03:11.890Z,45.44
2022-08-09T11:05:24.678Z,44.14
2022-08-09T11:07:59.375Z,44.70
2022-08-09T11:10:46.978Z,43.33
2022-08-09T11:13:50.384Z,42.56
2022-08-09T11:16:34.972Z,40.17
2022-08-09T11:19:09.432Z,40.06
2022-08-09T11:22:05.132Z,38.70
2022-08-09T11:25:08.767Z,38.11
2022-08-09T11:28:04.400Z,37.36
2022-08-09T11:30:37.568Z,37.14
2022-08-09T11:33:15.437Z,37.51
2022-08-09T11:35:49.200Z,37.26
2022-08-09T11:38:33.136Z,38.05
2022-08-09T11:41:16.169Z,37.17
2022-08-09T11:43:49.055Z,38.20
2022-08-09T11:46:26.589Z,36.78
2022-08-09T11:49:05.363Z,37.10
2022-08-09T11:53:03.269Z,35.76
2022-08-09T11:55:35.129Z,36.73
2022-08-09T11:58:15.687Z,36.99
2022-08-09T12:00:52.972Z,36.88
2022-08-09T12:03:55.122Z,36.49
2022-08-09T12:06:24.679Z,36.96
2022-08-09T12:08:56.976Z,37.43
2022-08-09T12:11:26.674Z,37.22
2022-08-09T12:14:11.103Z,37.86
2022-08-09T12:16:45.201Z,38.25
2022-08-09T12:19:14.808Z,38.23
2022-08-09T12:21:51.503Z,38.42
2022-08-09T12:24:23.985Z,39.00
2022-08-09T12:28:59.953Z,38.79
2022-08-09T12:30:01.478Z,38.41
2022-08-09T12:32:42.267Z,38.54
2022-08-09T12:35:12.681Z,38.44
2022-08-09T12:37:51.517Z,37.68
2022-08-09T12:40:23.067Z,38.36
2022-08-09T12:42:54.035Z,38.54
2022-08-09T12:45:34.842Z,38.76
2022-08-09T12:48:20.094Z,36.83
2022-08-09T12:50:56.799Z,37.64
2022-08-09T12:53:36.907Z,37.35
2022-08-09T12:56:11.502Z,36.82
2022-08-09T12:59:04.655Z,36.24
2022-08-09T13:01:32.414Z,35.74
2022-08-09T13:04:02.550Z,35.21
2022-08-09T13:06:38.974Z,35.20
2022-08-09T13:09:17.951Z,35.53
2022-08-09T13:11:49.541Z,36.57
2022-08-09T13:14:42.309Z,36.68
2022-08-09T13:17:44.000Z,36.50
2022-08-09T13:20:16.251Z,36.62
2022-08-09T13:23:06.091Z,36.30
2022-08-09T13:25:42.956Z,36.80
2022-08-09T13:28:33.921Z,36.91
2022-08-09T13:32:13.577Z,36.84
2022-08-09T13:33:54.669Z,37.14
2022-08-09T13:36:37.464Z,37.61
2022-08-09T13:41:17.567Z,37.68
2022-08-09T13:42:12.179Z,37.85
2022-08-09T13:44:45.662Z,38.18
2022-08-09T13:47:33.723Z,37.95
2022-08-09T13:50:12.489Z,38.88
2022-08-09T13:52:41.917Z,38.75
2022-08-09T13:55:13.770Z,38.77
2022-08-09T13:57:47.352Z,37.68
2022-08-09T14:00:28.654Z,37.89
2022-08-09T14:03:03.441Z,37.62
2022-08-09T14:05:58.314Z,38.05
2022-08-09T14:08:28.641Z,38.45
2022-08-09T14:10:59.426Z,38.43
2022-08-09T14:14:23.710Z,38.33
2022-08-09T14:16:19.983Z,38.56
2022-08-09T14:18:58.090Z,38.61
2022-08-09T14:21:29.208Z,38.72
2022-08-09T14:24:05.517Z,38.53
2022-08-09T14:26:51.955Z,39.72
2022-08-09T14:30:04.028Z,39.53
2022-08-09T14:32:13.108Z,39.15
2022-08-09T14:34:44.879Z,38.98
2022-08-09T14:37:13.262Z,39.01
2022-08-09T14:39:47.756Z,38.43
2022-08-09T14:42:28.710Z,38.60
2022-08-09T14:46:46.362Z,39.18
2022-08-09T14:47:57.074Z,39.13
2022-08-09T14:50:32.873Z,39.61
2022-08-09T14:53:03.019Z,40.27
2022-08-09T14:55:34.191Z,40.53
2022-08-09T14:58:03.857Z,40.81
2022-08-09T15:00:36.106Z,40.69
2022-08-09T15:03:07.334Z,41.17
2022-08-09T15:05:37.323Z,41.69
2022-08-09T15:08:06.353Z,41.59
2022-08-09T15:10:38.438Z,41.77
2022-08-09T15:13:08.929Z,42.53
2022-08-09T15:15:38.904Z,42.68
2022-08-09T15:18:12.364Z,42.52
2022-08-09T15:21:56.529Z,42.23
2022-08-09T15:24:01.309Z,42.15
2022-08-09T15:26:31.438Z,42.06
2022-08-09T15:29:04.454Z,42.08
2022-08-09T15:31:41.712Z,42.15
2022-08-09T15:34:32.743Z,42.27
2022-08-09T15:36:59.380Z,42.42
2022-08-09T15:39:49.919Z,42.83
2022-08-09T15:42:15.088Z,42.88
2022-08-09T15:44:42.953Z,43.38
2022-08-09T15:47:14.615Z,43.43
2022-08-09T15:50:00.556Z,43.74
2022-08-09T15:52:37.898Z,43.93
2022-08-09T15:55:08.914Z,44.23
2022-08-09T15:57:44.401Z,44.05
2022-08-09T16:00:24.265Z,44.30
2022-08-09T16:02:56.246Z,44.96
2022-08-09T16:05:47.123Z,44.59
2022-08-09T16:08:31.018Z,44.57
2022-08-09T16:11:03.350Z,44.79
2022-08-09T16:14:03.620Z,44.97
2022-08-09T16:16:19.951Z,44.79
2022-08-09T16:18:47.943Z,44.61
2022-08-09T16:21:17.370Z,45.75
2022-08-09T16:23:58.645Z,46.23
2022-08-09T16:26:34.901Z,47.11
2022-08-09T16:29:12.857Z,46.97
2022-08-09T16:32:19.422Z,46.92
2022-08-09T16:34:57.001Z,47.09
2022-08-09T16:37:55.766Z,47.51
2022-08-09T16:40:10.816Z,47.92
2022-08-09T16:42:45.074Z,48.38
2022-08-09T16:45:19.779Z,48.84
2022-08-09T16:48:38.160Z,48.98
2022-08-09T16:50:38.704Z,48.75
2022-08-09T16:53:08.734Z,49.36
2022-08-09T16:55:58.547Z,49.76
2022-08-09T16:58:25.297Z,49.59
2022-08-09T17:00:53.826Z,50.04
2022-08-09T17:03:23.987Z,50.49
2022-08-09T17:06:07.646Z,50.43
2022-08-09T17:09:00.049Z,50.51
2022-08-09T17:11:37.652Z,50.67
2022-08-09T17:14:16.252Z,51.72
2022-08-09T17:16:59.414Z,52.63
2022-08-09T17:19:46.638Z,52.39
2022-08-09T17:22:25.006Z,52.74
2022-08-09T17:25:02.662Z,53.41
2022-08-09T17:27:33.796Z,54.59
2022-08-09T17:30:04.660Z,54.93
2022-08-09T17:32:38.313Z,56.49
2022-08-09T17:35:12.395Z,57.66
2022-08-09T17:38:07.662Z,58.75
2022-08-09T17:40:31.884Z,58.37
2022-08-09T17:43:10.597Z,58.48
2022-08-09T17:46:02.697Z,58.50
2022-08-09T17:48:38.858Z,59.28
2022-08-09T17:51:17.259Z,62.47
2022-08-09T17:53:48.253Z,63.98
2022-08-09T17:56:22.175Z,62.32
2022-08-09T17:59:01.081Z,61.82
2022-08-09T18:02:03.636Z,61.14
2022-08-09T18:04:20.630Z,61.22
2022-08-09T18:06:49.701Z,60.42
2022-08-09T18:09:35.811Z,60.10
2022-08-09T18:12:17.272Z,58.46
2022-08-09T18:14:54.672Z,58.30
2022-08-09T18:18:04.010Z,58.52
2022-08-09T18:21:00.003Z,61.37
2022-08-09T18:23:05.185Z,62.87
2022-08-09T18:25:52.925Z,62.17
2022-08-09T18:30:41.445Z,61.94
2022-08-09T18:31:11.729Z,61.96
2022-08-09T18:33:40.257Z,61.42
2022-08-09T18:36:25.362Z,61.02
2022-08-09T18:39:02.892Z,60.68
2022-08-09T18:41:34.965Z,59.87
2022-08-09T18:44:12.864Z,58.32
2022-08-09T18:46:50.611Z,57.34
2022-08-09T18:49:32.384Z,58.05
2022-08-09T18:52:12.556Z,61.44
2022-08-09T18:54:49.714Z,64.16
2022-08-09T18:57:22.791Z,63.95
2022-08-09T18:59:55.512Z,63.10
2022-08-09T19:02:30.669Z,62.77
2022-08-09T19:05:14.061Z,62.67
2022-08-09T19:07:59.324Z,62.30
2022-08-09T19:10:37.326Z,62.65
2022-08-09T19:13:22.180Z,62.30
2022-08-09T19:15:52.592Z,61.83
2022-08-09T19:18:33.404Z,61.83
2022-08-09T19:21:08.845Z,61.97
2022-08-09T19:24:37.481Z,62.29
2022-08-09T19:26:31.241Z,62.40
2022-08-09T19:29:02.417Z,62.21
2022-08-09T19:31:44.353Z,62.03
2022-08-09T19:34:21.886Z,61.89
2022-08-09T19:36:53.402Z,61.82
2022-08-09T19:39:28.929Z,62.21
2022-08-09T19:42:15.374Z,62.11
2022-08-09T19:44:50.825Z,62.30
2022-08-09T19:47:23.229Z,62.21
2022-08-09T19:50:08.110Z,62.03
2022-08-09T19:52:51.406Z,61.92
2022-08-09T19:55:25.663Z,62.11
2022-08-09T19:57:59.641Z,62.43
2022-08-09T20:00:27.460Z,62.40
2022-08-09T20:04:17.151Z,62.30
2022-08-09T20:05:46.055Z,62.58
2022-08-09T20:08:16.204Z,62.75
2022-08-09T20:11:04.217Z,62.21
2022-08-09T20:13:36.985Z,62.46
2022-08-09T20:16:33.645Z,63.08
2022-08-09T20:19:42.515Z,62.95
2022-08-09T20:21:56.453Z,62.98
2022-08-09T20:24:32.094Z,63.09
2022-08-09T20:27:05.661Z,63.62
2022-08-09T20:29:38.764Z,63.70
2022-08-09T20:32:28.648Z,62.55
2022-08-09T20:34:59.838Z,62.14
2022-08-09T20:38:18.768Z,63.32
2022-08-09T20:40:27.217Z,63.01
2022-08-09T20:43:00.183Z,63.69
2022-08-09T20:45:59.315Z,64.25
2022-08-09T20:48:31.135Z,64.34
2022-08-09T20:51:01.032Z,64.74
2022-08-09T20:53:35.627Z,64.40
2022-08-09T20:56:09.680Z,63.98
2022-08-09T20:58:54.618Z,64.60
2022-08-09T21:01:34.673Z,64.99
2022-08-09T21:05:56.780Z,64.93
2022-08-09T21:07:11.433Z,64.60
2022-08-09T21:09:46.110Z,65.07
2022-08-09T21:15:17.548Z,65.44
2022-08-09T21:18:21.162Z,65.73
2022-08-09T21:20:41.555Z,65.11
2022-08-09T21:23:13.077Z,65.51
2022-08-09T21:25:59.233Z,65.19
2022-08-09T21:28:33.383Z,65.26
2022-08-09T21:31:01.672Z,65.17
2022-08-09T21:33:52.424Z,65.29
2022-08-09T21:36:29.086Z,65.26
2022-08-09T21:38:59.501Z,65.42
2022-08-09T21:42:05.884Z,65.80
2022-08-09T21:44:33.798Z,65.79
2022-08-09T21:47:04.977Z,65.77
2022-08-09T21:49:39.699Z,65.78
2022-08-09T21:52:18.007Z,65.02
2022-08-09T21:54:59.730Z,65.34
2022-08-09T21:57:39.513Z,65.72
2022-08-09T22:00:25.540Z,65.56
2022-08-09T22:02:59.355Z,65.73
2022-08-09T22:05:35.368Z,65.86
2022-08-09T22:08:13.942Z,65.62
2022-08-09T22:11:00.796Z,65.49
2022-08-09T22:13:34.525Z,65.65
2022-08-09T22:16:07.479Z,65.92
2022-08-09T22:18:43.989Z,66.10
2022-08-09T22:21:44.751Z,66.07
2022-08-09T22:24:16.947Z,66.13
2022-08-09T22:26:51.432Z,66.23
2022-08-09T22:29:27.018Z,66.09
2022-08-09T22:32:00.250Z,65.92
2022-08-09T22:34:28.546Z,65.83
2022-08-09T22:36:57.747Z,65.94
2022-08-09T22:39:56.059Z,66.01
2022-08-09T22:42:20.886Z,65.71
2022-08-09T22:45:00.038Z,66.00
2022-08-09T22:48:17.751Z,66.17
2022-08-09T22:50:32.225Z,66.50
2022-08-09T22:53:03.637Z,66.42
2022-08-09T22:56:06.514Z,66.43
2022-08-09T22:58:32.399Z,66.27
2022-08-09T23:01:03.323Z,66.37
2022-08-09T23:04:03.596Z,66.31
2022-08-09T23:06:34.986Z,65.53
2022-08-09T23:09:07.713Z,66.02
2022-08-09T23:11:35.432Z,66.47
2022-08-09T23:14:03.981Z,66.67
2022-08-09T23:16:32.037Z,66.89
2022-08-09T23:19:00.798Z,66.97
2022-08-09T23:21:34.329Z,66.92
2022-08-09T23:24:07.595Z,66.73
2022-08-09T23:26:36.838Z,66.73
2022-08-09T23:29:13.818Z,66.87
2022-08-09T23:31:42.601Z,66.68
2022-08-09T23:34:10.542Z,66.58
2022-08-09T23:36:38.627Z,66.75
2022-08-09T23:39:08.200Z,66.84
2022-08-09T23:41:36.181Z,66.67
2022-08-09T23:44:04.599Z,66.87
2022-08-09T23:46:32.335Z,66.75
2022-08-09T23:49:00.545Z,66.77
2022-08-09T23:51:28.726Z,66.97
2022-08-09T23:54:02.938Z,66.89
2022-08-09T23:56:53.520Z,66.58
2022-08-09T23:59:24.368Z,66.53
